Latest Weather Observations for Kadina

IDS60801

Issued at 10:35 pm CST Tuesday 22 July 2014 (issued every 30 minutes, with the page automatically refreshed every 10 minutes)

About weather observations | Map of weather stations | Latest weather observations for SA | Other Formats
Station Details ID: 022050 Name: KADINA AWS Lat: -33.97 Lon: 137.66 Height: 41.14 m
Data from the previous 72 hours. | See also: Recent months at Kadina
Date/Time
CST
Temp
°C
App
Temp
°C
Dew
Point
Rel
Hum
%
Delta-T
°C
Wind Press
QNH
hPa
Press
MSL
hPa
Rain
since 9 am
mm
Dir
 
Spd
km/h
Gust
km/h
Spd
kts
Gust
kts
22/10:30pm 6.9 3.0 5.5 91 0.6 E 15 15 8 8 1020.0 - 0.0
22/10:00pm 6.7 2.8 5.3 91 0.6 E 15 17 8 9 1019.9 - 0.0
22/09:30pm 6.4 2.5 5.2 92 0.5 E 15 15 8 8 1020.0 - 0.0
22/09:00pm 6.4 2.5 5.2 92 0.5 E 15 17 8 9 1020.0 1020.0 0.0
22/08:30pm 6.4 2.5 5.2 92 0.5 E 15 17 8 9 1020.1 - 0.0
22/08:00pm 6.4 2.8 5.0 91 0.6 E 13 15 7 8 1020.1 - 0.0
22/07:30pm 6.4 2.8 4.9 90 0.7 E 13 15 7 8 1020.1 - 0.0
22/07:00pm 6.7 3.1 5.0 89 0.7 E 13 15 7 8 1020.2 - 0.0
22/06:30pm 7.5 4.0 5.5 87 0.9 E 13 15 7 8 1020.4 - 0.0
22/06:00pm 8.5 5.1 5.8 83 1.2 E 13 15 7 8 1020.3 1020.3 0.0
22/05:30pm 11.1 8.7 6.8 75 2.0 ENE 9 11 5 6 1020.1 - 0.0
22/05:00pm 15.2 13.7 10.4 73 2.5 ENE 9 9 5 5 1020.3 - 0.0
22/04:30pm 15.9 14.6 9.8 67 3.2 NE 7 9 4 5 1020.3 - 0.0
22/04:00pm 16.0 12.9 7.2 56 4.4 NNE 13 15 7 8 1020.0 - 0.0
22/03:30pm 16.5 12.6 7.2 54 4.6 NNE 17 20 9 11 1020.1 - 0.0
22/03:00pm 16.9 13.2 6.4 50 5.1 NNE 15 19 8 10 1020.2 1020.2 0.0
22/02:30pm 16.9 13.5 5.8 48 5.4 NNE 13 17 7 9 1020.2 - 0.0
22/02:00pm 16.8 13.2 5.1 46 5.6 NNE 13 19 7 10 1020.7 - 0.0
22/01:30pm 16.7 12.7 2.7 39 6.4 N 13 17 7 9 1021.3 - 0.0
22/01:00pm 16.6 12.6 4.9 46 5.5 N 15 20 8 11 1021.7 - 0.0
22/12:30pm 16.9 14.8 8.3 57 4.4 NNE 9 13 5 7 1022.1 - 0.0
22/12:00pm 16.0 13.3 7.5 57 4.2 NNE 11 13 6 7 1022.7 1022.7 0.0
22/11:30am 15.3 12.5 7.1 58 4.0 N 11 15 6 8 1023.1 - 0.0
22/11:00am 14.7 12.4 9.1 69 2.9 NNE 11 13 6 7 1023.3 - 0.0
22/10:30am 13.7 11.8 9.0 73 2.4 NE 9 13 5 7 1023.6 - 0.0
22/10:00am 12.1 9.7 7.0 71 2.5 NE 9 13 5 7 1023.7 - 0.0
22/09:30am 9.8 7.4 7.2 84 1.2 E 9 11 5 6 1023.7 - 0.0
22/09:00am 6.6 3.7 4.9 89 0.7 E 9 11 5 6 1023.6 1023.6 0.0
22/08:30am 4.5 1.4 3.5 93 0.4 E 9 11 5 6 1023.5 - 0.0
22/08:00am 2.3 -1.9 1.6 95 0.3 E 13 15 7 8 1023.2 - 0.0
22/07:30am 0.4 -3.3 -0.2 96 0.2 E 9 11 5 6 1023.2 - 0.0
22/07:00am 0.5 -3.2 -0.2 95 0.3 E 9 11 5 6 1023.0 - 0.0
22/06:30am 0.7 -3.4 -0.2 94 0.3 E 11 13 6 7 1022.5 - 0.0
22/06:00am 1.0 -3.1 0.1 94 0.3 E 11 11 6 6 1022.3 1022.3 0.0
22/05:30am 2.0 -2.7 1.1 94 0.3 ESE 15 17 8 9 1021.9 - 0.0
22/05:00am 1.5 -3.6 0.8 95 0.3 SE 17 17 9 9 1021.9 - 0.0
22/04:30am 1.1 -3.3 0.4 95 0.3 ESE 13 15 7 8 1022.1 - 0.0
22/04:00am 1.4 -2.9 0.7 95 0.3 ESE 13 15 7 8 1022.0 - 0.0
22/03:30am 1.0 -3.4 0.3 95 0.3 ESE 13 15 7 8 1022.0 - 0.0
22/03:00am 1.2 -3.2 0.5 95 0.3 E 13 15 7 8 1022.0 1022.0 0.0
22/02:30am 1.8 -2.5 1.1 95 0.3 ESE 13 13 7 7 1022.1 - 0.0
22/02:00am 1.5 -2.8 0.8 95 0.3 ESE 13 15 7 8 1022.1 - 0.0
22/01:30am 1.7 -2.6 1.0 95 0.3 ESE 13 15 7 8 1022.2 - 0.0
22/01:00am 1.7 -2.6 1.0 95 0.3 ESE 13 13 7 7 1022.3 - 0.0
22/12:30am 2.2 -2.0 1.5 95 0.3 E 13 13 7 7 1022.5 - 0.0
22/12:00am 1.9 -2.0 1.0 94 0.3 E 11 13 6 7 1022.6 1022.6 0.0
 
Date/Time
CST
Temp
°C
App
Temp
°C
Dew
Point
Rel
Hum
%
Delta-T
°C
Wind Press
QNH
hPa
Press
MSL
hPa
Rain
since 9 am
mm
Dir
 
Spd
km/h
Gust
km/h
Spd
kts
Gust
kts
21/11:30pm 2.4 -1.8 1.7 95 0.3 E 13 15 7 8 1022.5 - 0.0
21/11:00pm 1.9 -2.0 1.2 95 0.3 E 11 13 6 7 1022.5 - 0.0
21/10:30pm 2.4 -1.8 1.5 94 0.3 E 13 15 7 8 1022.4 - 0.0
21/10:00pm 2.5 -1.3 1.6 94 0.3 E 11 13 6 7 1022.5 - 0.0
21/09:30pm 2.7 -1.5 1.7 93 0.4 E 13 15 7 8 1022.4 - 0.0
21/09:00pm 3.4 -0.3 2.2 92 0.5 ESE 11 13 6 7 1022.4 1022.4 0.0
21/08:30pm 3.4 -0.3 2.1 91 0.5 E 11 13 6 7 1022.2 - 0.0
21/08:00pm 4.0 0.0 2.7 91 0.5 ESE 13 13 7 7 1022.0 - 0.0
21/07:30pm 4.9 1.4 3.4 90 0.6 ESE 11 11 6 6 1021.8 - 0.0
21/07:00pm 5.0 1.7 2.7 85 0.9 ENE 9 11 5 6 1021.6 - 0.0
21/06:30pm 6.6 2.9 4.3 85 1.0 ENE 13 15 7 8 1021.2 - 0.0
21/06:00pm 7.9 4.8 5.5 85 1.1 ENE 11 13 6 7 1021.1 1021.1 0.0
21/05:30pm 8.7 5.2 5.4 80 1.5 NE 13 15 7 8 1020.9 - 0.0
21/05:00pm 11.1 7.9 6.8 75 2.0 NE 13 15 7 8 1020.7 - 0.0
21/04:30pm 11.6 8.8 6.9 73 2.2 NNE 11 13 6 7 1020.7 - 0.0
21/04:00pm 13.5 9.9 6.6 63 3.3 NNE 15 17 8 9 1020.5 - 0.0
21/03:30pm 14.5 9.8 5.3 54 4.3 N 19 24 10 13 1020.5 - 0.0
21/03:00pm 14.3 10.1 5.9 57 4.0 N 17 22 9 12 1020.5 1020.5 0.0
21/02:30pm 14.2 10.0 5.8 57 4.0 N 17 22 9 12 1020.4 - 0.0
21/02:00pm 13.6 9.2 6.5 62 3.4 NNE 19 26 10 14 1020.3 - 0.0
21/01:30pm 13.0 8.6 6.4 64 3.2 NNE 19 24 10 13 1020.6 - 0.0
21/01:00pm 13.3 9.0 6.9 65 3.1 NNE 19 22 10 12 1020.9 - 0.0
21/12:30pm 13.4 9.9 7.0 65 3.1 NNE 15 20 8 11 1021.5 - 0.0
21/12:00pm 12.6 9.3 6.6 67 2.9 N 13 19 7 10 1021.9 1021.9 0.0
21/11:30am 12.9 8.8 6.0 63 3.3 N 17 20 9 11 1022.1 - 0.0
21/11:00am 13.7 9.4 6.8 63 3.3 N 19 26 10 14 1022.4 - 0.0
21/10:30am 12.1 8.3 7.6 74 2.2 NNE 17 20 9 11 1022.6 - 0.0
21/10:00am 11.4 7.4 6.7 73 2.2 NNE 17 20 9 11 1022.7 - 0.0
21/09:30am 10.7 6.9 5.9 72 2.2 NNE 15 20 8 11 1022.6 - 0.0
21/09:00am 9.2 5.4 5.8 79 1.5 NE 15 19 8 10 1022.3 1022.3 0.0
21/08:30am 7.9 4.4 5.4 84 1.1 NE 13 15 7 8 1022.1 - 0.0
21/08:00am 6.0 1.9 4.2 88 0.8 NE 15 17 8 9 1022.0 - 0.0
21/07:30am 6.0 1.9 4.3 89 0.7 NE 15 17 8 9 1022.0 - 0.0
21/07:00am 5.5 1.4 4.2 91 0.6 NE 15 17 8 9 1021.8 - 0.0
21/06:30am 5.4 1.2 3.9 90 0.6 ENE 15 17 8 9 1021.6 - 0.0
21/06:00am 5.9 1.8 4.4 90 0.6 ENE 15 19 8 10 1021.3 1021.3 0.0
21/05:30am 6.2 2.2 4.7 90 0.7 NE 15 19 8 10 1021.3 - 0.0
21/05:00am 6.5 2.5 5.0 90 0.7 NE 15 17 8 9 1021.3 - 0.0
21/04:30am 6.5 2.5 5.1 91 0.6 ENE 15 17 8 9 1021.3 - 0.0
21/04:00am 6.7 2.8 5.2 90 0.7 NE 15 17 8 9 1021.5 - 0.0
21/03:30am 6.3 2.3 4.9 91 0.6 NE 15 17 8 9 1021.5 - 0.0
21/03:00am 6.5 2.1 5.0 90 0.7 NE 17 20 9 11 1021.5 1021.5 0.0
21/02:30am 6.2 1.8 5.0 92 0.5 NE 17 19 9 10 1021.5 - 0.0
21/02:00am 6.0 2.0 5.0 93 0.4 ENE 15 17 8 9 1021.7 - 0.0
21/01:30am 6.7 2.8 5.3 91 0.6 ENE 15 19 8 10 1021.8 - 0.0
21/01:00am 7.0 3.2 5.8 92 0.5 ENE 15 17 8 9 1022.0 - 0.0
21/12:30am 7.0 3.2 5.9 93 0.5 ENE 15 19 8 10 1022.4 - 0.0
21/12:00am 4.8 1.4 3.9 94 0.4 E 11 13 6 7 1022.8 1022.8 0.0
 
Date/Time
CST
Temp
°C
App
Temp
°C
Dew
Point
Rel
Hum
%
Delta-T
°C
Wind Press
QNH
hPa
Press
MSL
hPa
Rain
since 9 am
mm
Dir
 
Spd
km/h
Gust
km/h
Spd
kts
Gust
kts
20/11:30pm 4.8 1.0 3.9 94 0.4 E 13 15 7 8 1022.8 - 0.0
20/11:00pm 4.8 1.0 3.8 93 0.4 E 13 15 7 8 1023.1 - 0.0
20/10:30pm 4.9 0.7 3.7 92 0.5 ENE 15 17 8 9 1023.2 - 0.0
20/10:00pm 6.5 3.7 5.3 92 0.5 ENE 9 11 5 6 1023.2 - 0.0
20/09:30pm 7.0 3.5 5.6 91 0.6 ENE 13 15 7 8 1023.3 - 0.0
20/09:00pm 7.8 4.8 5.9 88 0.9 ENE 11 13 6 7 1023.5 1023.5 0.0
20/08:30pm 8.6 5.0 6.6 87 0.9 NE 15 19 8 10 1023.7 - 0.0
20/08:00pm 8.3 5.1 6.8 90 0.7 ENE 13 17 7 9 1023.9 - 0.0
20/07:30pm 7.8 4.5 6.3 90 0.7 ENE 13 15 7 8 1023.7 - 0.0
20/07:00pm 8.2 4.6 6.8 91 0.6 ENE 15 17 8 9 1023.6 - 0.0
20/06:30pm 7.5 4.1 6.0 90 0.7 ENE 13 15 7 8 1023.5 - 0.0
20/06:00pm 7.9 4.6 6.2 89 0.8 E 13 15 7 8 1023.2 1023.2 0.0
20/05:30pm 9.0 6.2 7.0 87 0.9 ENE 11 13 6 7 1023.4 - 0.0
20/05:00pm 10.0 7.6 6.9 81 1.5 ENE 9 11 5 6 1023.4 - 0.0
20/04:30pm 10.9 8.6 7.4 79 1.7 NE 9 11 5 6 1023.3 - 0.0
20/04:00pm 11.3 8.1 6.8 74 2.1 NNE 13 15 7 8 1023.2 - 0.0
20/03:30pm 11.5 8.2 6.4 71 2.4 NNE 13 17 7 9 1023.3 - 0.0
20/03:00pm 11.6 7.1 5.9 68 2.6 N 19 24 10 13 1023.5 1023.5 0.0
20/02:30pm 12.2 8.0 5.8 65 3.0 N 17 22 9 12 1023.5 - 0.0
20/02:00pm 12.6 8.4 5.5 62 3.3 N 17 20 9 11 1023.7 - 0.0
20/01:30pm 12.4 8.9 5.3 62 3.3 NNE 13 19 7 10 1024.2 - 0.0
20/01:00pm 11.9 8.2 6.4 69 2.6 N 15 19 8 10 1024.9 - 0.0
20/12:30pm 11.6 7.6 6.5 71 2.4 NNE 17 20 9 11 1025.5 - 0.0
20/12:00pm 11.7 7.9 7.4 75 2.1 NNE 17 20 9 11 1025.9 1025.8 0.0
20/11:30am 10.8 7.3 7.1 78 1.8 NE 15 20 8 11 1026.3 - 0.0
20/11:00am 10.2 6.7 7.3 82 1.4 NNE 15 19 8 10 1026.8 - 0.0
20/10:30am 9.7 6.2 7.3 85 1.1 NE 15 19 8 10 1027.1 - 0.0
20/10:00am 8.5 4.4 6.1 85 1.1 NE 17 20 9 11 1027.2 - 0.0
20/09:30am 8.0 4.2 5.8 86 1.0 ENE 15 20 8 11 1027.2 - 0.0
20/09:00am 6.6 2.6 4.9 89 0.7 ENE 15 19 8 10 1027.3 1027.2 0.0
20/08:30am 5.2 1.5 4.2 93 0.4 ENE 13 17 7 9 1027.2 - 0.0
20/08:00am 3.2 -0.1 2.6 96 0.2 E 9 11 5 6 1027.1 - 0.0
20/07:30am 2.5 -1.7 1.8 95 0.3 E 13 15 7 8 1027.0 - 0.0
20/07:00am 2.3 -2.3 1.7 96 0.2 E 15 17 8 9 1027.0 - 0.0
20/06:30am 1.6 -3.1 1.0 96 0.2 E 15 15 8 8 1027.0 - 0.0
20/06:00am 1.6 -2.3 1.0 96 0.2 E 11 15 6 8 1027.0 1026.9 0.0
20/05:30am 2.4 -1.4 1.8 96 0.2 ESE 11 13 6 7 1026.8 - 0.0
20/05:00am 2.5 -2.0 2.1 97 0.2 ESE 15 15 8 8 1026.8 - 0.0
20/04:30am 2.1 -1.8 1.4 95 0.3 ESE 11 13 6 7 1026.8 - 0.0
20/04:00am 3.0 -0.7 2.3 95 0.3 ESE 11 13 6 7 1026.8 - 0.0
20/03:30am 3.3 -1.1 2.6 95 0.3 ESE 15 17 8 9 1026.8 - 0.0
20/03:00am 3.0 -1.1 2.4 96 0.2 E 13 15 7 8 1027.1 1027.0 0.0
20/02:30am 2.5 -1.7 1.9 96 0.2 ESE 13 15 7 8 1027.0 - 0.0
20/02:00am 2.3 -1.9 1.7 96 0.2 ESE 13 15 7 8 1027.0 - 0.0
20/01:30am 1.9 -2.4 1.3 96 0.2 ESE 13 15 7 8 1027.3 - 0.0
20/01:00am 2.4 -1.8 1.8 96 0.2 ESE 13 13 7 7 1027.6 - 0.0
20/12:30am 3.1 -1.3 2.5 96 0.2 ESE 15 15 8 8 1028.0 - 0.0
20/12:00am 2.7 -1.0 2.1 96 0.2 E 11 13 6 7 1028.2 1028.1 0.0
 
Date/Time
CST
Temp
°C
App
Temp
°C
Dew
Point
Rel
Hum
%
Delta-T
°C
Wind Press
QNH
hPa
Press
MSL
hPa
Rain
since 9 am
mm
Dir
 
Spd
km/h
Gust
km/h
Spd
kts
Gust
kts
19/11:30pm 3.1 -1.3 2.5 96 0.2 ESE 15 15 8 8 1028.6 - 0.0
19/11:00pm 2.9 -0.8 2.3 96 0.2 ESE 11 13 6 7 1028.9 - 0.0

Other Formats:

Comma delimited format used in spreadsheet applications
http://www.bom.gov.au/fwo/IDS60801/IDS60801.94685.axf

JavaScript Object Notation format (JSON) in row-major order
http://www.bom.gov.au/fwo/IDS60801/IDS60801.94685.json